Time;durP1;ratioP1;P1;durP2;ratioP2;P2;SDS_P1;SDS_P2;PMS_P1;PMS_P2;Temp;Humidity;BMP_temperature;BMP_pressure;BME280_temperature;BME280_humidity;BME280_pressure;Samples;Min_cycle;Max_cycle;Signal;HPM_P1;HPM_P2
2022/03/13 00:01:04;;;;;;;5.47;3.70;;;;;;;13.97;48.83;101475.47;4951705;28;20522;-56
2022/03/13 00:03:34;;;;;;;5.75;3.80;;;;;;;14.09;48.34;101481.69;4953985;28;20158;-54
2022/03/13 00:05:59;;;;;;;5.13;3.55;;;;;;;14.04;48.53;101479.91;4961096;28;20456;-56
2022/03/13 00:08:33;;;;;;;5.20;3.63;;;;;;;14.07;48.27;101475.56;4953348;28;20038;-55
2022/03/13 00:11:08;;;;;;;6.03;4.00;;;;;;;14.05;48.62;101479.03;4950619;28;20076;-55
2022/03/13 00:13:44;;;;;;;5.72;3.80;;;;;;;14.10;48.59;101472.97;4950860;28;20034;-55
2022/03/13 00:16:09;;;;;;;5.97;3.70;;;;;;;14.02;48.69;101477.28;4958126;28;20038;-58
2022/03/13 00:18:46;;;;;;;5.63;3.70;;;;;;;13.91;49.20;101478.91;4959135;28;20103;-55
2022/03/13 00:21:14;;;;;;;5.60;3.65;;;;;;;13.97;49.51;101468.47;4957218;28;20579;-56
2022/03/13 00:23:42;;;;;;;6.10;3.63;;;;;;;14.01;49.38;101470.28;4954568;28;20056;-54
2022/03/13 00:26:08;;;;;;;7.55;4.07;;;;;;;13.91;50.02;101467.53;4959199;28;20074;-55
2022/03/13 00:28:33;;;;;;;5.63;3.65;;;;;;;13.85;49.84;101463.13;4958710;28;20294;-56
2022/03/13 00:30:59;;;;;;;6.35;3.92;;;;;;;13.89;50.59;101464.94;4953721;28;20120;-54
2022/03/13 00:33:25;;;;;;;6.97;3.90;;;;;;;13.81;50.62;101457.00;4959011;28;20058;-53
2022/03/13 00:35:51;;;;;;;6.82;3.92;;;;;;;13.80;50.18;101459.59;4961762;28;20049;-54
2022/03/13 00:38:17;;;;;;;6.05;4.20;;;;;;;13.76;51.43;101460.44;4950851;28;20042;-54
2022/03/13 00:40:48;;;;;;;6.05;3.90;;;;;;;13.74;51.15;101465.66;4938111;28;20096;-54
2022/03/13 00:43:13;;;;;;;5.50;3.80;;;;;;;13.82;50.48;101461.38;4954913;28;20152;-55
2022/03/13 00:45:38;;;;;;;6.78;4.05;;;;;;;13.66;50.55;101464.69;4962770;28;20049;-55
2022/03/13 00:48:04;;;;;;;5.10;3.58;;;;;;;13.67;50.45;101461.22;4959292;28;20042;-57
2022/03/13 00:50:29;;;;;;;6.70;3.78;;;;;;;13.79;50.07;101461.31;4959124;28;20046;-56
2022/03/13 00:52:56;;;;;;;6.03;3.92;;;;;;;13.90;50.02;101465.81;4957108;28;20038;-56
2022/03/13 00:55:21;;;;;;;6.68;4.10;;;;;;;13.89;49.87;101443.97;4965694;28;20560;-56
2022/03/13 00:57:47;;;;;;;6.88;3.88;;;;;;;13.68;49.79;101455.09;4960062;28;20120;-55
2022/03/13 01:00:13;;;;;;;6.25;4.15;;;;;;;13.81;49.50;101451.75;4962371;28;20042;-56
2022/03/13 01:02:39;;;;;;;6.10;3.80;;;;;;;13.86;49.22;101457.03;4954625;28;20057;-55
2022/03/13 01:05:06;;;;;;;6.00;4.10;;;;;;;13.77;49.84;101444.72;4950070;28;20042;-55
2022/03/13 01:07:32;;;;;;;6.13;4.00;;;;;;;13.86;49.70;101448.28;4960378;28;20035;-57
2022/03/13 01:09:57;;;;;;;6.15;4.00;;;;;;;13.85;49.23;101443.91;4966822;28;20568;-55
2022/03/13 01:12:22;;;;;;;6.55;3.90;;;;;;;13.87;49.29;101447.41;4945893;28;20043;-55
2022/03/13 01:14:48;;;;;;;6.22;4.45;;;;;;;13.82;49.33;101435.16;4940797;28;20049;-58
2022/03/13 01:17:17;;;;;;;6.13;4.03;;;;;;;13.84;48.95;101442.16;4958676;28;20274;-53
2022/03/13 01:19:42;;;;;;;5.38;3.92;;;;;;;13.86;49.24;101425.56;4952400;28;20061;-55
2022/03/13 01:22:08;;;;;;;6.18;4.15;;;;;;;13.78;49.15;101433.34;4960967;28;20046;-56
2022/03/13 01:24:42;;;;;;;6.22;4.13;;;;;;;13.81;49.50;101430.78;4954377;28;20334;-52
2022/03/13 01:27:08;;;;;;;;;;;;;;;13.87;49.15;101427.34;4954173;28;20310;-56
2022/03/13 01:29:34;;;;;;;7.18;3.90;;;;;;;13.84;49.09;101435.19;4960599;28;19925;-53
2022/03/13 01:32:00;;;;;;;5.95;3.80;;;;;;;13.73;49.33;101429.81;4958235;28;20050;-53
2022/03/13 01:34:38;;;;;;;6.07;4.00;;;;;;;13.74;49.39;101425.47;4957947;28;20042;-55
2022/03/13 01:37:08;;;;;;;6.32;4.03;;;;;;;13.76;49.23;101413.25;4945939;28;20672;-55
2022/03/13 01:39:33;;;;;;;6.72;4.28;;;;;;;13.83;49.04;101422.94;4955190;28;20054;-55
2022/03/13 01:41:59;;;;;;;7.15;3.88;;;;;;;13.74;49.22;101418.47;4957763;28;20042;-56
2022/03/13 01:44:26;;;;;;;6.22;3.70;;;;;;;13.85;48.95;101409.81;4962039;28;20121;-57
2022/03/13 01:46:51;;;;;;;5.82;3.85;;;;;;;13.86;48.81;101415.09;4942188;28;20084;-60
2022/03/13 01:49:17;;;;;;;5.55;3.80;;;;;;;13.84;48.85;101408.97;4933328;28;20061;-55
2022/03/13 01:51:42;;;;;;;7.20;4.07;;;;;;;13.77;48.97;101410.66;4964625;28;20453;-57
2022/03/13 01:54:11;;;;;;;6.03;4.10;;;;;;;13.79;48.84;101408.91;4962837;28;20497;-56
2022/03/13 01:56:38;;;;;;;7.05;4.07;;;;;;;13.75;48.99;101407.13;4965308;28;20046;-54
2022/03/13 01:59:06;;;;;;;6.32;3.88;;;;;;;13.76;48.95;101393.19;4949466;28;20434;-52
2022/03/13 02:01:33;;;;;;;5.80;3.90;;;;;;;13.70;49.50;101400.09;4963855;28;20046;-54
2022/03/13 02:03:58;;;;;;;5.60;3.75;;;;;;;13.81;49.14;101395.84;4960259;28;20428;-56
2022/03/13 02:06:24;;;;;;;6.20;3.85;;;;;;;13.72;48.94;101394.00;4963987;28;20497;-54
2022/03/13 02:08:50;;;;;;;5.57;3.83;;;;;;;13.79;48.93;101387.94;4948155;28;20035;-59
2022/03/13 02:11:19;;;;;;;6.00;3.80;;;;;;;13.85;48.96;101388.84;4961884;28;20607;-55
2022/03/13 02:13:48;;;;;;;6.20;3.63;;;;;;;13.87;48.76;101388.03;4964052;28;20041;-55
2022/03/13 02:16:14;;;;;;;6.22;3.85;;;;;;;13.77;49.11;101386.19;4961766;28;20077;-55
2022/03/13 02:18:41;;;;;;;5.75;3.92;;;;;;;13.76;49.10;101390.56;4947406;28;20081;-56
2022/03/13 02:21:09;;;;;;;5.32;3.90;;;;;;;13.72;48.95;101380.03;4952210;28;20275;-55
2022/03/13 02:23:36;;;;;;;5.63;3.70;;;;;;;13.77;49.14;101384.47;4962866;28;20061;-56
2022/03/13 02:26:03;;;;;;;5.65;3.97;;;;;;;13.71;48.95;101381.78;4957212;28;20508;-54
2022/03/13 02:28:30;;;;;;;5.63;4.05;;;;;;;13.64;49.46;101377.34;4956850;28;20249;-54
2022/03/13 02:31:00;;;;;;;6.05;3.60;;;;;;;13.65;49.18;101368.63;4955535;28;20038;-54
2022/03/13 02:33:26;;;;;;;5.40;3.75;;;;;;;13.70;48.98;101376.53;4944735;28;20413;-55
2022/03/13 02:35:57;;;;;;;5.85;3.92;;;;;;;13.65;49.29;101367.75;4969632;28;20524;-55
2022/03/13 02:38:24;;;;;;;6.43;3.65;;;;;;;13.58;49.40;101374.69;4956127;28;20433;-56
2022/03/13 02:40:50;;;;;;;6.20;3.72;;;;;;;13.59;49.27;101362.47;4954594;28;20046;-62
2022/03/13 02:43:16;;;;;;;6.47;3.90;;;;;;;13.64;49.58;101356.38;4957487;28;20049;-53
2022/03/13 02:45:42;;;;;;;6.22;3.90;;;;;;;13.57;49.85;101356.31;4963486;28;20688;-56
2022/03/13 02:48:09;;;;;;;6.25;4.07;;;;;;;13.61;49.43;101350.22;4953325;28;20053;-54
2022/03/13 02:50:35;;;;;;;5.80;4.10;;;;;;;13.55;49.39;101347.56;4956179;28;20065;-55
2022/03/13 02:53:00;;;;;;;6.60;4.07;;;;;;;13.58;49.35;101351.09;4947782;28;20648;-55
2022/03/13 02:55:26;;;;;;;5.68;3.65;;;;;;;13.62;49.39;101344.13;4962801;28;20143;-54
2022/03/13 02:57:52;;;;;;;5.90;3.85;;;;;;;13.51;49.51;101344.03;4957586;28;20590;-55
2022/03/13 03:00:19;;;;;;;5.93;3.78;;;;;;;13.56;49.67;101337.09;4958014;28;20038;-55
2022/03/13 03:02:45;;;;;;;6.28;3.95;;;;;;;13.49;49.72;101345.75;4961557;28;20766;-57
2022/03/13 03:05:11;;;;;;;7.97;3.97;;;;;;;13.52;49.77;101344.94;4941516;28;20058;-55
2022/03/13 03:07:37;;;;;;;5.70;3.90;;;;;;;13.58;49.58;101342.34;4961751;28;20053;-54
2022/03/13 03:10:05;;;;;;;7.30;3.83;;;;;;;13.58;49.52;101343.25;4961558;28;20322;-55
2022/03/13 03:12:31;;;;;;;5.93;4.10;;;;;;;13.56;49.79;101342.34;4960450;28;20056;-52
2022/03/13 03:14:57;;;;;;;7.22;3.92;;;;;;;13.54;49.73;101341.44;4947264;28;20049;-57
2022/03/13 03:17:22;;;;;;;5.57;3.97;;;;;;;13.42;50.01;101337.84;4958219;28;20042;-54
2022/03/13 03:19:48;;;;;;;5.68;3.90;;;;;;;13.45;50.09;101343.09;4962508;28;20477;-54
2022/03/13 03:22:14;;;;;;;5.85;4.00;;;;;;;13.48;50.07;101344.00;4945070;28;20128;-52
2022/03/13 03:24:40;;;;;;;6.88;4.15;;;;;;;13.49;50.03;101339.66;4957888;28;20391;-55
2022/03/13 03:27:05;;;;;;;7.00;4.30;;;;;;;13.49;50.53;101348.38;4951300;28;20050;-56
2022/03/13 03:29:31;;;;;;;7.10;4.45;;;;;;;13.41;50.17;101347.47;4960524;28;20374;-53
2022/03/13 03:31:57;;;;;;;6.90;4.45;;;;;;;13.44;50.10;101360.56;4959945;28;20478;-56
2022/03/13 03:34:26;;;;;;;6.55;3.85;;;;;;;13.39;50.63;101350.06;4960941;28;20038;-54
2022/03/13 03:36:55;;;;;;;6.60;4.00;;;;;;;13.36;50.69;101359.59;4952806;28;20050;-53
2022/03/13 03:39:23;;;;;;;6.10;4.22;;;;;;;13.49;50.28;101355.34;4952810;28;20552;-54
2022/03/13 03:41:50;;;;;;;6.55;4.13;;;;;;;13.42;50.56;101351.81;4964315;28;20042;-55
2022/03/13 03:44:17;;;;;;;7.15;4.20;;;;;;;13.39;50.68;101346.56;4960179;28;20560;-52
2022/03/13 03:46:45;;;;;;;6.68;4.03;;;;;;;13.46;50.69;101350.09;4961999;28;20167;-52
2022/03/13 03:49:10;;;;;;;6.07;4.00;;;;;;;13.49;50.40;101351.00;4958421;28;20136;-56
2022/03/13 03:51:37;;;;;;;6.20;3.88;;;;;;;13.43;50.68;101355.31;4959675;28;20085;-55
2022/03/13 03:54:04;;;;;;;5.95;4.00;;;;;;;13.39;50.91;101357.91;4962371;28;20513;-54
2022/03/13 03:56:30;;;;;;;5.53;3.85;;;;;;;13.34;51.09;101366.59;4957380;28;20745;-53
2022/03/13 03:58:55;;;;;;;6.60;4.20;;;;;;;13.39;50.74;101359.66;4952447;28;20056;-53
2022/03/13 04:01:21;;;;;;;5.43;3.85;;;;;;;13.35;51.38;101356.13;4960036;28;20691;-54
2022/03/13 04:03:46;;;;;;;6.57;4.07;;;;;;;13.19;51.48;101358.56;4957562;28;20049;-51
2022/03/13 04:06:12;;;;;;;6.30;4.15;;;;;;;13.14;51.72;101366.38;4962551;28;20042;-55
2022/03/13 04:08:37;;;;;;;6.55;4.15;;;;;;;13.33;51.69;101356.97;4955994;28;20826;-52
2022/03/13 04:11:03;;;;;;;6.25;4.25;;;;;;;13.14;51.99;101362.88;4935626;28;20506;-54
2022/03/13 04:13:28;;;;;;;5.68;4.00;;;;;;;13.22;51.55;101359.50;4965381;28;20413;-54
2022/03/13 04:15:55;;;;;;;6.10;4.20;;;;;;;13.07;52.10;101354.03;4958111;28;20057;-53
2022/03/13 04:18:21;;;;;;;6.90;4.30;;;;;;;13.06;52.43;101356.63;4953002;28;20042;-52
2022/03/13 04:20:47;;;;;;;6.18;3.78;;;;;;;12.99;52.50;101355.72;4959770;28;20061;-54
2022/03/13 04:23:12;;;;;;;6.57;4.20;;;;;;;13.17;52.25;101355.06;4952917;28;21252;-50
2022/03/13 04:25:38;;;;;;;6.07;3.97;;;;;;;13.30;51.94;101357.81;4960352;28;20502;-50
2022/03/13 04:28:04;;;;;;;6.15;4.13;;;;;;;13.14;52.23;101355.03;4965056;28;20046;-53
2022/03/13 04:30:32;;;;;;;6.43;4.20;;;;;;;13.14;52.68;101349.78;4960879;28;20498;-55
2022/03/13 04:32:58;;;;;;;6.10;3.97;;;;;;;13.16;52.58;101348.94;4935028;28;20057;-54
2022/03/13 04:35:24;;;;;;;6.68;4.00;;;;;;;13.20;52.58;101347.22;4961925;28;20046;-53
2022/03/13 04:37:50;;;;;;;6.07;4.20;;;;;;;13.16;52.76;101348.06;4958450;28;20141;-51
2022/03/13 04:40:15;;;;;;;6.05;4.28;;;;;;;13.14;52.84;101352.41;4959905;28;20041;-54
2022/03/13 04:42:40;;;;;;;6.78;4.50;;;;;;;12.91;53.57;101353.00;4954131;28;20050;-50
2022/03/13 04:45:06;;;;;;;6.68;4.18;;;;;;;12.99;53.45;101340.00;4953256;28;20061;-54
2022/03/13 04:47:32;;;;;;;6.75;4.40;;;;;;;12.95;53.87;101346.94;4959980;28;20137;-52
2022/03/13 04:49:59;;;;;;;6.97;4.57;;;;;;;12.98;54.13;101340.88;4952646;28;20050;-53
2022/03/13 04:52:28;;;;;;;7.45;4.60;;;;;;;12.87;54.31;101351.19;4959493;28;20182;-52
2022/03/13 04:54:54;;;;;;;7.75;4.60;;;;;;;12.92;54.06;101346.03;4954530;28;20684;-52
2022/03/13 04:57:20;;;;;;;6.85;4.60;;;;;;;13.08;53.77;101350.56;4963863;28;20046;-55
2022/03/13 04:59:45;;;;;;;8.45;4.85;;;;;;;13.05;53.85;101347.94;4960499;28;20669;-55
2022/03/13 05:02:11;;;;;;;6.95;4.80;;;;;;;12.96;54.24;101347.81;4964218;28;20080;-55
2022/03/13 05:04:38;;;;;;;7.60;4.78;;;;;;;12.91;54.57;101339.03;4960762;28;20050;-54
2022/03/13 05:07:04;;;;;;;8.20;5.05;;;;;;;12.91;54.46;101350.41;4950055;28;20653;-51
2022/03/13 05:09:29;;;;;;;7.43;4.72;;;;;;;12.95;54.50;101341.69;4958133;28;20042;-52
2022/03/13 05:11:55;;;;;;;7.47;5.10;;;;;;;12.86;54.93;101344.22;4964548;28;20136;-54
2022/03/13 05:14:21;;;;;;;7.28;4.78;;;;;;;12.85;55.15;101339.84;4960205;28;20119;-54
2022/03/13 05:16:46;;;;;;;8.68;5.07;;;;;;;12.76;55.29;101333.63;4959386;28;20503;-52
2022/03/13 05:19:11;;;;;;;7.10;4.90;;;;;;;12.90;55.05;101343.41;4958255;28;20058;-54
2022/03/13 05:21:37;;;;;;;7.93;5.13;;;;;;;12.83;55.33;101343.31;4960454;28;20494;-55
2022/03/13 05:24:02;;;;;;;7.78;5.15;;;;;;;12.73;56.04;101339.72;4961902;28;20046;-54
2022/03/13 05:26:28;;;;;;;7.55;4.88;;;;;;;12.68;56.00;101343.13;4957253;28;20600;-56
2022/03/13 05:28:54;;;;;;;7.47;5.32;;;;;;;12.55;56.54;101339.47;4953406;28;20872;-53
2022/03/13 05:31:19;;;;;;;8.88;5.65;;;;;;;12.52;56.73;101342.03;4965292;28;20051;-53
2022/03/13 05:33:45;;;;;;;8.85;5.47;;;;;;;12.53;56.94;101338.56;4965807;28;20125;-55
2022/03/13 05:36:11;;;;;;;8.38;5.28;;;;;;;12.56;56.84;101334.25;4962416;28;20149;-53
2022/03/13 05:38:37;;;;;;;8.07;5.60;;;;;;;12.59;56.59;101336.03;4956077;28;21269;-51
2022/03/13 05:41:04;;;;;;;9.15;5.80;;;;;;;12.47;56.91;101334.16;4949422;28;20176;-55
2022/03/13 05:43:31;;;;;;;8.05;5.45;;;;;;;12.58;56.86;101335.16;4958790;28;20066;-55
2022/03/13 05:45:56;;;;;;;8.13;5.32;;;;;;;12.53;56.80;101339.47;4963239;28;20050;-53
2022/03/13 05:48:22;;;;;;;9.73;6.00;;;;;;;12.57;56.81;101341.25;4962481;28;20051;-54
2022/03/13 05:50:47;;;;;;;9.23;5.50;;;;;;;12.50;57.28;101343.78;4960717;28;20505;-53
2022/03/13 05:53:13;;;;;;;8.52;5.93;;;;;;;12.44;57.39;101330.63;4961815;28;20459;-56
2022/03/13 05:55:38;;;;;;;12.10;6.03;;;;;;;12.56;57.23;101338.63;4970117;28;20046;-54
2022/03/13 05:58:04;;;;;;;8.35;5.60;;;;;;;12.38;57.83;101338.41;4959800;28;20294;-54
2022/03/13 06:00:33;;;;;;;9.50;6.03;;;;;;;12.37;57.80;101342.75;4959756;28;20105;-55
2022/03/13 06:03:00;;;;;;;9.52;5.45;;;;;;;12.36;57.75;101340.97;4955342;28;20456;-53
2022/03/13 06:05:26;;;;;;;9.95;5.63;;;;;;;12.38;57.76;101341.84;4963931;28;20042;-55
2022/03/13 06:07:52;;;;;;;9.30;6.05;;;;;;;12.27;58.02;101334.72;4962031;28;20466;-54
2022/03/13 06:10:17;;;;;;;8.60;6.00;;;;;;;12.31;58.40;101328.69;4959814;28;20049;-56
2022/03/13 06:12:44;;;;;;;8.43;5.90;;;;;;;12.31;58.12;101328.69;4955644;28;20474;-55
2022/03/13 06:15:14;;;;;;;10.55;6.18;;;;;;;12.44;58.05;101328.84;4958983;28;21047;-53
2022/03/13 06:17:42;;;;;;;11.15;6.22;;;;;;;12.44;58.05;101334.09;4957826;28;20054;-55
2022/03/13 06:20:10;;;;;;;11.32;6.78;;;;;;;12.38;58.71;101335.78;4967768;28;20047;-54
2022/03/13 06:22:37;;;;;;;9.82;6.25;;;;;;;12.32;59.16;101335.69;4949006;28;20513;-55
2022/03/13 06:25:03;;;;;;;10.70;6.90;;;;;;;12.25;59.89;101344.31;4952098;28;20453;-54
2022/03/13 06:27:29;;;;;;;11.82;7.43;;;;;;;12.36;59.61;101342.72;4956507;28;20046;-53
2022/03/13 06:29:55;;;;;;;12.30;7.70;;;;;;;12.03;61.51;101343.09;4961898;28;20050;-53
2022/03/13 06:32:20;;;;;;;11.88;7.80;;;;;;;12.01;61.77;101344.84;4961056;28;20358;-51
2022/03/13 06:34:45;;;;;;;13.57;7.43;;;;;;;11.99;62.17;101352.66;4960445;28;20062;-54
2022/03/13 06:37:11;;;;;;;16.67;8.38;;;;;;;12.09;61.95;101359.75;4941353;28;20136;-55
2022/03/13 06:39:36;;;;;;;14.60;8.55;;;;;;;11.75;63.09;101360.09;4965874;28;20117;-51
2022/03/13 06:42:02;;;;;;;13.70;8.30;;;;;;;11.88;63.19;101359.44;4959960;28;20061;-53
2022/03/13 06:44:28;;;;;;;15.18;8.73;;;;;;;11.87;63.26;101351.56;4956216;28;20050;-55
2022/03/13 06:46:53;;;;;;;14.30;9.25;;;;;;;11.78;63.80;101353.16;4956018;28;20465;-53
2022/03/13 06:49:20;;;;;;;15.75;9.18;;;;;;;11.56;64.17;101358.88;4954202;28;20174;-51
2022/03/13 06:51:45;;;;;;;17.13;10.02;;;;;;;11.57;63.97;101352.81;4960264;28;20529;-55
2022/03/13 06:54:14;;;;;;;19.27;10.00;;;;;;;11.60;64.49;101352.84;4962404;28;20081;-54
2022/03/13 06:56:40;;;;;;;17.40;10.18;;;;;;;11.65;64.09;101350.28;4963369;28;20078;-54
2022/03/13 06:59:05;;;;;;;16.58;10.40;;;;;;;11.63;64.34;101346.81;4951587;28;20052;-55
2022/03/13 07:01:36;;;;;;;18.08;10.48;;;;;;;11.53;65.09;101356.19;4962387;28;20046;-54
2022/03/13 07:04:02;;;;;;;19.08;11.00;;;;;;;11.69;64.33;101359.97;4961454;28;20042;-54
2022/03/13 07:06:27;;;;;;;17.42;11.15;;;;;;;11.64;64.26;101365.13;4961190;28;20033;-54
2022/03/13 07:08:53;;;;;;;17.52;11.23;;;;;;;11.49;64.66;101366.56;4953311;28;20042;-52
2022/03/13 07:11:18;;;;;;;18.77;11.48;;;;;;;11.65;64.23;101361.63;4961358;28;20405;-55
2022/03/13 07:13:45;;;;;;;21.17;11.98;;;;;;;11.65;64.20;101360.75;4961295;28;20510;-53
2022/03/13 07:16:13;;;;;;;21.95;12.45;;;;;;;11.68;64.15;101363.41;4960424;28;20073;-51
2022/03/13 07:18:39;;;;;;;19.17;12.00;;;;;;;11.77;63.53;101356.63;4953548;28;20061;-54
2022/03/13 07:21:05;;;;;;;20.15;12.38;;;;;;;11.66;63.95;101357.28;4954949;28;20168;-54
2022/03/13 07:23:30;;;;;;;19.45;12.07;;;;;;;11.87;62.98;101362.91;4964666;28;20046;-55
2022/03/13 07:25:55;;;;;;;24.63;12.73;;;;;;;11.96;62.72;101360.41;4956844;28;20116;-53
2022/03/13 07:28:21;;;;;;;19.80;12.60;;;;;;;12.09;61.95;101370.22;4961460;28;20061;-54
2022/03/13 07:30:46;;;;;;;20.20;12.75;;;;;;;12.18;61.86;101366.88;4957260;28;20133;-54
2022/03/13 07:33:12;;;;;;;21.40;12.90;;;;;;;12.55;60.78;101369.13;4956656;28;20073;-54
2022/03/13 07:35:38;;;;;;;23.23;13.50;;;;;;;12.98;60.06;101367.94;4965447;28;20057;-54
2022/03/13 07:38:04;;;;;;;22.42;13.77;;;;;;;12.60;59.90;101366.56;4961614;28;20038;-55
2022/03/13 07:40:30;;;;;;;24.52;14.52;;;;;;;12.55;59.92;101369.13;4957217;28;20152;-54
2022/03/13 07:42:55;;;;;;;25.00;14.93;;;;;;;12.59;60.56;101356.97;4954784;28;20076;-54
2022/03/13 07:45:21;;;;;;;26.13;14.68;;;;;;;12.79;59.59;101367.69;4960384;28;20897;-55
2022/03/13 07:47:46;;;;;;;26.08;15.57;;;;;;;12.81;59.14;101365.94;4944592;28;20189;-51
2022/03/13 07:50:11;;;;;;;25.13;15.90;;;;;;;12.89;59.34;101366.91;4944110;28;20403;-54
2022/03/13 07:52:37;;;;;;;26.38;16.00;;;;;;;12.78;59.55;101360.69;4953305;28;20362;-53
2022/03/13 07:55:03;;;;;;;25.25;15.05;;;;;;;12.91;58.77;101367.81;4942461;28;20902;-50
2022/03/13 07:57:28;;;;;;;25.08;15.88;;;;;;;12.83;58.80;101359.88;4961642;28;20120;-51
2022/03/13 07:59:54;;;;;;;25.67;16.35;;;;;;;12.84;59.38;101359.03;4961076;28;20541;-56
2022/03/13 08:02:20;;;;;;;28.85;16.55;;;;;;;12.78;59.14;101360.69;4961098;28;20046;-53
2022/03/13 08:04:46;;;;;;;28.23;17.02;;;;;;;12.93;59.25;101353.00;4953085;28;20660;-52
2022/03/13 08:07:11;;;;;;;26.50;17.48;;;;;;;13.33;58.33;101357.84;4959720;28;22784;-54
2022/03/13 08:09:38;;;;;;;30.05;17.40;;;;;;;13.56;57.36;101352.81;4963676;28;20677;-54
2022/03/13 08:12:05;;;;;;;28.00;16.85;;;;;;;13.97;57.18;101339.16;4962712;28;20539;-55
2022/03/13 08:14:30;;;;;;;27.55;17.80;;;;;;;14.11;56.24;101337.50;4952174;28;20045;-54
2022/03/13 08:16:56;;;;;;;25.33;16.73;;;;;;;14.69;54.65;101330.84;4952829;28;20074;-52
2022/03/13 08:19:21;;;;;;;26.05;16.90;;;;;;;14.83;53.72;101337.00;4943244;28;20575;-53
2022/03/13 08:21:47;;;;;;;29.08;17.45;;;;;;;14.85;53.85;101330.03;4957335;28;20348;-54
2022/03/13 08:24:14;;;;;;;27.48;17.38;;;;;;;15.00;53.88;101332.69;4957863;28;20278;-53
2022/03/13 08:26:40;;;;;;;24.85;16.52;;;;;;;14.92;54.06;101333.56;4943180;28;20517;-54
2022/03/13 08:29:10;;;;;;;27.90;17.38;;;;;;;15.37;52.58;101336.25;4947918;28;20236;-58
2022/03/13 08:31:36;;;;;;;25.80;16.67;;;;;;;15.29;51.38;101345.03;4965898;28;20291;-56
2022/03/13 08:34:07;;;;;;;26.08;17.67;;;;;;;15.23;51.30;101339.75;4962263;28;20042;-51
2022/03/13 08:36:36;;;;;;;27.58;17.50;;;;;;;15.00;51.72;101337.94;4961655;28;20037;-54
2022/03/13 08:39:02;;;;;;;27.80;17.52;;;;;;;15.15;51.41;101330.97;4952493;28;20035;-55
2022/03/13 08:41:27;;;;;;;26.40;17.27;;;;;;;15.18;50.73;101334.50;4960523;28;20124;-55
2022/03/13 08:43:53;;;;;;;26.38;17.48;;;;;;;15.00;52.20;101326.59;4960264;28;20789;-54
2022/03/13 08:46:18;;;;;;;27.55;17.83;;;;;;;15.14;51.82;101331.84;4950307;28;20457;-55
2022/03/13 08:48:44;;;;;;;28.40;18.13;;;;;;;15.20;51.24;101327.47;4961825;28;20460;-53
2022/03/13 08:51:12;;;;;;;29.77;18.45;;;;;;;15.44;51.08;101339.75;4946104;28;20133;-57
2022/03/13 08:53:37;;;;;;;29.00;18.15;;;;;;;15.40;51.45;101333.66;4958711;28;20054;-56
2022/03/13 08:56:03;;;;;;;30.35;18.38;;;;;;;15.50;51.30;101331.00;4958335;28;20520;-55
2022/03/13 08:58:28;;;;;;;27.70;17.80;;;;;;;15.28;51.28;101328.38;4961427;28;20061;-53
2022/03/13 09:00:55;;;;;;;25.58;17.25;;;;;;;15.33;49.31;101329.25;4959562;28;20104;-53
2022/03/13 09:03:20;;;;;;;26.42;17.55;;;;;;;15.46;50.20;101327.53;4963216;28;20054;-55
2022/03/13 09:05:48;;;;;;;27.48;17.70;;;;;;;15.13;50.41;101322.19;4966346;28;20213;-53
2022/03/13 09:08:14;;;;;;;27.23;17.48;;;;;;;15.36;50.32;101318.75;4963353;28;20556;-54
2022/03/13 09:10:39;;;;;;;29.10;18.30;;;;;;;15.39;50.23;101323.13;4963321;28;20057;-56
2022/03/13 09:13:05;;;;;;;27.30;17.73;;;;;;;15.49;49.42;101318.78;4954135;28;20129;-54
2022/03/13 09:15:30;;;;;;;25.80;17.08;;;;;;;15.56;49.40;101324.03;4954381;28;20148;-57
2022/03/13 09:17:55;;;;;;;32.67;18.15;;;;;;;15.81;48.81;101320.53;4960584;28;20687;-55
2022/03/13 09:20:22;;;;;;;29.05;18.15;;;;;;;15.46;49.04;101321.38;4962654;28;20043;-54
2022/03/13 09:22:48;;;;;;;26.23;16.95;;;;;;;15.34;48.91;101317.88;4960071;28;20092;-53
2022/03/13 09:25:14;;;;;;;25.52;17.63;;;;;;;15.67;48.60;101331.94;4958036;28;20061;-55
2022/03/13 09:27:39;;;;;;;28.30;17.58;;;;;;;15.69;48.67;101323.16;4961653;28;20176;-56
2022/03/13 09:30:05;;;;;;;32.35;17.67;;;;;;;15.54;48.89;101325.81;4956115;28;20046;-54
2022/03/13 09:32:31;;;;;;;26.63;17.30;;;;;;;15.91;48.06;101321.41;4960718;28;20049;-55
2022/03/13 09:34:56;;;;;;;25.30;16.73;;;;;;;16.19;47.13;101332.75;4951161;28;20050;-54
2022/03/13 09:37:23;;;;;;;23.48;15.20;;;;;;;16.40;46.42;101321.28;4958856;28;20038;-52
2022/03/13 09:39:50;;;;;;;24.08;15.13;;;;;;;16.56;45.17;101313.34;4961591;28;20108;-52
2022/03/13 09:42:16;;;;;;;25.30;15.45;;;;;;;16.61;45.36;101329.13;4959168;28;20046;-56
2022/03/13 09:44:41;;;;;;;22.15;14.63;;;;;;;16.55;44.65;101319.47;4959354;28;20460;-53
2022/03/13 09:47:10;;;;;;;23.60;15.65;;;;;;;16.69;45.00;101323.84;4950052;28;20710;-54
2022/03/13 09:49:36;;;;;;;21.02;13.95;;;;;;;16.93;44.16;101321.09;4945193;28;20635;-54
2022/03/13 09:52:01;;;;;;;24.58;14.68;;;;;;;16.63;44.35;101324.75;4959279;28;20312;-55
2022/03/13 09:54:27;;;;;;;23.65;15.15;;;;;;;16.84;44.44;101322.00;4960891;28;20043;-56
2022/03/13 09:56:52;;;;;;;21.58;14.65;;;;;;;16.91;43.60;101312.31;4956007;28;20300;-54
2022/03/13 09:59:18;;;;;;;21.25;14.80;;;;;;;16.52;44.13;101310.72;4958038;28;20042;-55
2022/03/13 10:01:43;;;;;;;21.40;13.93;;;;;;;16.48;44.42;101306.34;4963149;28;20631;-54
2022/03/13 10:04:09;;;;;;;21.77;14.68;;;;;;;16.48;44.35;101307.22;4955160;28;20057;-54
2022/03/13 10:07:07;;;;;;;20.83;14.23;;;;;;;16.62;44.71;101300.19;4957185;28;20128;-55
2022/03/13 10:09:34;;;;;;;23.88;14.45;;;;;;;16.57;44.78;101309.81;4939490;28;20042;-56
2022/03/13 10:12:10;;;;;;;21.60;14.68;;;;;;;16.40;44.18;101309.03;4959170;28;20030;-56
2022/03/13 10:14:39;;;;;;;22.65;14.00;;;;;;;16.29;44.98;101300.25;4946565;28;20630;-55
2022/03/13 10:17:05;;;;;;;20.33;13.50;;;;;;;16.20;44.89;101305.56;4957634;28;20038;-56
2022/03/13 10:19:31;;;;;;;24.25;14.32;;;;;;;16.64;44.34;101300.19;4958053;28;20601;-53
2022/03/13 10:22:07;;;;;;;21.55;13.55;;;;;;;16.69;44.00;101295.75;4955120;28;20096;-56
2022/03/13 10:24:59;;;;;;;21.00;13.90;;;;;;;16.82;43.90;101302.72;4959027;28;20479;-56
2022/03/13 10:27:24;;;;;;;22.23;13.93;;;;;;;16.90;43.57;101302.66;4953850;28;20137;-55
2022/03/13 10:29:50;;;;;;;23.75;13.90;;;;;;;17.02;44.09;101310.47;4956888;28;20072;-54
2022/03/13 10:32:15;;;;;;;20.45;13.43;;;;;;;16.87;43.80;101302.69;4957997;28;20604;-52
2022/03/13 10:34:41;;;;;;;21.52;13.32;;;;;;;16.94;43.40;101297.38;4957884;28;20513;-55
2022/03/13 10:37:08;;;;;;;22.90;13.80;;;;;;;16.94;42.66;101297.38;4950649;28;21354;-54
2022/03/13 10:39:34;;;;;;;17.70;11.77;;;;;;;17.21;42.62;101298.94;4946760;28;20073;-56
2022/03/13 10:42:03;;;;;;;18.10;12.32;;;;;;;17.42;41.73;101295.28;4960638;28;20039;-56
2022/03/13 10:44:42;;;;;;;21.27;12.60;;;;;;;17.15;41.96;101291.06;4957699;28;20097;-54
2022/03/13 10:47:10;;;;;;;19.15;13.10;;;;;;;17.22;43.12;101286.66;4958909;28;20177;-55
2022/03/13 10:49:41;;;;;;;19.65;13.05;;;;;;;17.01;42.43;101285.06;4961895;28;20038;-54
2022/03/13 10:52:31;;;;;;;18.17;12.68;;;;;;;17.29;43.07;101283.09;4953063;28;20038;-55
2022/03/13 10:55:18;;;;;;;19.45;12.45;;;;;;;17.45;41.93;101268.88;4952636;28;20057;-57
2022/03/13 10:58:02;;;;;;;21.33;13.00;;;;;;;17.15;42.38;101271.75;4950575;28;20053;-54
2022/03/13 11:00:28;;;;;;;17.00;11.98;;;;;;;17.53;41.38;101272.34;4959729;28;20046;-51
2022/03/13 11:03:10;;;;;;;21.13;12.05;;;;;;;17.44;41.78;101273.28;4936999;28;20045;-56
2022/03/13 11:05:36;;;;;;;17.42;12.15;;;;;;;17.27;41.85;101272.53;4961975;28;20345;-51
2022/03/13 11:08:03;;;;;;;19.70;13.50;;;;;;;17.49;41.79;101268.00;4942891;28;20672;-53
2022/03/13 11:10:29;;;;;;;20.33;13.77;;;;;;;17.38;42.11;101262.78;4963886;28;20038;-55
2022/03/13 11:12:56;;;;;;;19.25;12.48;;;;;;;17.15;41.89;101267.38;4959542;28;20899;-55
2022/03/13 11:15:23;;;;;;;19.35;12.23;;;;;;;17.34;42.49;101265.47;4959652;28;20054;-55
2022/03/13 11:17:49;;;;;;;20.65;13.55;;;;;;;17.24;43.00;101264.69;4959344;28;20634;-52